Time;durP1;ratioP1;P1;durP2;ratioP2;P2;SDS_P1;SDS_P2;PMS_P1;PMS_P2;Temp;Humidity;BMP_temperature;BMP_pressure;BME280_temperature;BME280_humidity;BME280_pressure;Samples;Min_cycle;Max_cycle;Signal;HPM_P1;HPM_P2
2023/02/23 00:01:20;;;;;;;27.02;22.00;;;;;;;;;;5054536;28;20389;-83
2023/02/23 00:03:48;;;;;;;26.15;21.92;;;;;;;;;;5054355;28;20472;-82
2023/02/23 00:06:14;;;;;;;24.30;21.23;;;;;;;;;;5054312;28;20413;-83
2023/02/23 00:08:40;;;;;;;25.00;21.95;;;;;;;;;;5036180;28;20869;-82
2023/02/23 00:11:07;;;;;;;25.45;21.60;;;;;;;;;;5054275;28;20381;-83
2023/02/23 00:13:36;;;;;;;23.27;20.77;;;;;;;;;;5054131;28;20409;-82
2023/02/23 00:16:12;;;;;;;25.60;22.88;;;;;;;;;;5054150;28;20464;-83
2023/02/23 00:18:47;;;;;;;27.23;23.15;;;;;;;;;;5054168;28;20370;-82
2023/02/23 00:21:33;;;;;;;26.88;23.45;;;;;;;;;;5054163;28;20378;-83
2023/02/23 00:24:02;;;;;;;29.27;23.77;;;;;;;;;;5053833;28;20432;-82
2023/02/23 00:26:31;;;;;;;27.45;22.73;;;;;;;;;;5054010;28;20854;-82
2023/02/23 00:28:58;;;;;;;26.90;23.13;;;;;;;;;;5053956;28;20388;-83
2023/02/23 00:31:25;;;;;;;26.27;23.13;;;;;;;;;;5053920;28;20384;-82
2023/02/23 00:33:53;;;;;;;24.88;22.15;;;;;;;;;;5053649;28;20387;-82
2023/02/23 00:36:20;;;;;;;27.35;22.85;;;;;;;;;;5053820;28;20858;-83
2023/02/23 00:38:46;;;;;;;25.83;22.08;;;;;;;;;;5053846;28;20389;-82
2023/02/23 00:41:15;;;;;;;24.58;21.15;;;;;;;;;;5053661;28;20448;-82
2023/02/23 00:43:47;;;;;;;23.10;20.70;;;;;;;;;;5053528;28;20409;-83
2023/02/23 00:46:15;;;;;;;25.80;22.42;;;;;;;;;;5035980;28;20385;-82
2023/02/23 00:48:41;;;;;;;27.60;22.92;;;;;;;;;;5053588;28;20715;-83
2023/02/23 00:51:07;;;;;;;29.88;24.05;;;;;;;;;;5051842;28;20379;-83
2023/02/23 00:53:33;;;;;;;26.65;22.42;;;;;;;;;;5042115;28;20900;-83
2023/02/23 00:55:59;;;;;;;25.90;22.73;;;;;;;;;;5053476;28;20379;-83
2023/02/23 00:58:26;;;;;;;24.58;21.90;;;;;;;;;;5053500;28;20388;-83
2023/02/23 01:00:52;;;;;;;26.77;23.20;;;;;;;;;;5053423;28;20377;-82
2023/02/23 01:03:19;;;;;;;26.65;23.73;;;;;;;;;;5039083;28;20896;-82
2023/02/23 01:05:48;;;;;;;24.60;21.63;;;;;;;;;;5053336;28;21033;-83
2023/02/23 01:08:14;;;;;;;28.33;22.50;;;;;;;;;;5052742;28;20400;-83
2023/02/23 01:10:41;;;;;;;25.97;22.13;;;;;;;;;;5034571;28;20477;-83
2023/02/23 01:13:08;;;;;;;23.20;20.17;;;;;;;;;;5053096;28;20873;-83
2023/02/23 01:15:35;;;;;;;23.75;21.25;;;;;;;;;;5052958;28;20384;-83
2023/02/23 01:18:01;;;;;;;24.85;22.15;;;;;;;;;;5052500;28;20412;-83
2023/02/23 01:20:27;;;;;;;23.55;21.02;;;;;;;;;;5052101;28;20484;-82
2023/02/23 01:22:52;;;;;;;25.42;21.00;;;;;;;;;;5051661;28;20750;-82
2023/02/23 01:25:19;;;;;;;22.23;19.83;;;;;;;;;;5033710;28;20413;-82
2023/02/23 01:27:45;;;;;;;25.00;22.42;;;;;;;;;;5052912;28;20378;-82
2023/02/23 01:30:14;;;;;;;25.98;21.92;;;;;;;;;;5051969;28;20385;-82
2023/02/23 01:32:40;;;;;;;27.42;23.75;;;;;;;;;;5052859;28;20459;-82
2023/02/23 01:35:10;;;;;;;31.13;25.38;;;;;;;;;;5050929;28;20385;-82
2023/02/23 01:37:39;;;;;;;29.05;24.27;;;;;;;;;;5053667;28;20468;-82
2023/02/23 01:40:13;;;;;;;28.75;23.17;;;;;;;;;;5051746;28;20393;-82
2023/02/23 01:42:40;;;;;;;27.20;22.67;;;;;;;;;;5051863;28;20381;-82
2023/02/23 01:45:22;;;;;;;28.10;22.92;;;;;;;;;;5048495;28;20905;-82
2023/02/23 01:47:48;;;;;;;26.35;22.95;;;;;;;;;;5052380;28;20455;-82
2023/02/23 01:50:15;;;;;;;25.77;21.70;;;;;;;;;;5052465;28;20393;-82
2023/02/23 01:52:43;;;;;;;25.20;22.27;;;;;;;;;;5052089;28;20385;-82
2023/02/23 01:55:11;;;;;;;25.05;22.05;;;;;;;;;;5052203;28;20406;-82
2023/02/23 01:57:37;;;;;;;23.97;21.53;;;;;;;;;;5052229;28;20476;-82
2023/02/23 02:00:11;;;;;;;23.30;20.83;;;;;;;;;;5052294;28;20400;-82
2023/02/23 02:02:37;;;;;;;24.20;20.63;;;;;;;;;;5052210;28;20711;-82
2023/02/23 02:05:07;;;;;;;24.00;20.63;;;;;;;;;;5052098;28;20414;-82
2023/02/23 02:07:38;;;;;;;23.58;21.10;;;;;;;;;;5051945;28;20378;-83
2023/02/23 02:12:38;;;;;;;22.52;20.15;;;;;;;;;;5043708;28;20456;-82
2023/02/23 02:15:06;;;;;;;23.83;21.23;;;;;;;;;;5051886;28;20420;-82
2023/02/23 02:17:33;;;;;;;25.10;20.90;;;;;;;;;;5051926;28;20388;-82
2023/02/23 02:19:58;;;;;;;23.93;21.00;;;;;;;;;;5051479;28;20386;-82
2023/02/23 02:22:24;;;;;;;23.52;21.13;;;;;;;;;;5051837;28;20940;-82
2023/02/23 02:24:53;;;;;;;22.17;19.88;;;;;;;;;;5051695;28;20433;-82
2023/02/23 02:27:25;;;;;;;28.35;22.05;;;;;;;;;;5051743;28;20377;-82
2023/02/23 02:30:12;;;;;;;24.02;21.20;;;;;;;;;;5051753;28;20850;-82
2023/02/23 02:32:51;;;;;;;27.17;21.87;;;;;;;;;;5051560;28;20382;-82
2023/02/23 02:35:26;;;;;;;23.55;21.05;;;;;;;;;;5051644;28;20374;-82
2023/02/23 02:37:55;;;;;;;23.35;20.52;;;;;;;;;;5051593;28;20413;-82
2023/02/23 02:40:37;;;;;;;24.50;20.98;;;;;;;;;;5051585;28;20388;-82
2023/02/23 02:43:11;;;;;;;23.52;21.02;;;;;;;;;;5051395;28;20381;-82
2023/02/23 02:45:37;;;;;;;24.80;21.48;;;;;;;;;;5051477;28;20493;-82
2023/02/23 02:48:15;;;;;;;24.50;20.67;;;;;;;;;;5051454;28;20930;-82
2023/02/23 02:50:45;;;;;;;21.83;19.50;;;;;;;;;;5048345;28;20373;-82
2023/02/23 02:53:13;;;;;;;22.40;20.10;;;;;;;;;;5051099;28;20754;-82
2023/02/23 02:55:42;;;;;;;22.30;19.92;;;;;;;;;;5033725;28;20393;-82
2023/02/23 02:58:10;;;;;;;24.50;20.90;;;;;;;;;;5051283;28;20472;-82
2023/02/23 04:18:56;;;;;;;22.65;20.25;;;;;;;;;;5054210;28;20377;-82
2023/02/23 04:21:22;;;;;;;22.55;20.17;;;;;;;;;;5054217;28;20373;-82
2023/02/23 04:23:48;;;;;;;24.90;21.38;;;;;;;;;;5035942;28;20413;-82
2023/02/23 04:26:16;;;;;;;26.05;21.45;;;;;;;;;;5053552;28;20452;-82
2023/02/23 04:28:42;;;;;;;22.83;20.30;;;;;;;;;;5053986;28;20763;-82
2023/02/23 04:31:08;;;;;;;21.60;19.30;;;;;;;;;;5036139;28;20406;-82
2023/02/23 04:33:34;;;;;;;22.35;19.63;;;;;;;;;;5053967;28;20401;-82
2023/02/23 04:36:00;;;;;;;23.60;20.73;;;;;;;;;;5053499;28;20393;-83
2023/02/23 04:38:26;;;;;;;22.92;20.40;;;;;;;;;;5035125;28;20447;-83
2023/02/23 04:40:52;;;;;;;21.67;19.37;;;;;;;;;;5052180;28;20936;-83
2023/02/23 04:43:18;;;;;;;24.55;21.77;;;;;;;;;;5051709;28;20464;-83
2023/02/23 04:45:45;;;;;;;22.55;20.15;;;;;;;;;;5051794;28;20397;-83
2023/02/23 04:48:11;;;;;;;23.88;20.10;;;;;;;;;;5050224;28;20389;-82
2023/02/23 04:50:37;;;;;;;25.27;20.80;;;;;;;;;;5033618;28;20411;-83
2023/02/23 04:53:03;;;;;;;23.40;20.13;;;;;;;;;;5050692;28;20416;-82
2023/02/23 04:55:29;;;;;;;22.70;20.13;;;;;;;;;;5051068;28;20867;-82
2023/02/23 04:57:59;;;;;;;25.73;20.25;;;;;;;;;;5047836;28;20443;-82
2023/02/23 05:00:25;;;;;;;26.40;21.42;;;;;;;;;;5047160;28;20471;-82
2023/02/23 05:02:51;;;;;;;25.50;22.60;;;;;;;;;;5050793;28;20404;-81
2023/02/23 05:05:17;;;;;;;25.65;21.48;;;;;;;;;;5050930;28;20911;-82
2023/02/23 05:07:43;;;;;;;26.52;21.75;;;;;;;;;;5051241;28;20723;-82
2023/02/23 05:10:10;;;;;;;27.27;21.58;;;;;;;;;;5050172;28;20373;-83
2023/02/23 05:12:36;;;;;;;26.25;21.42;;;;;;;;;;5030900;28;20472;-82
2023/02/23 05:15:02;;;;;;;23.08;20.42;;;;;;;;;;5031398;28;20835;-83
2023/02/23 05:17:28;;;;;;;22.02;19.73;;;;;;;;;;5049285;28;20476;-83
2023/02/23 05:19:55;;;;;;;22.42;19.77;;;;;;;;;;5049301;28;20451;-83
2023/02/23 05:22:21;;;;;;;22.00;19.70;;;;;;;;;;5049154;28;20416;-83
2023/02/23 05:24:47;;;;;;;24.13;21.52;;;;;;;;;;5049220;28;20953;-82
2023/02/23 05:27:14;;;;;;;24.58;21.40;;;;;;;;;;5050162;28;20851;-82
2023/02/23 05:29:40;;;;;;;24.23;21.63;;;;;;;;;;5052761;28;20909;-83
2023/02/23 05:32:06;;;;;;;26.88;22.70;;;;;;;;;;5050435;28;20398;-83
2023/02/23 05:34:32;;;;;;;23.58;20.05;;;;;;;;;;5050428;28;20382;-83
2023/02/23 05:36:58;;;;;;;27.90;22.73;;;;;;;;;;5022468;28;20423;-83
2023/02/23 05:39:25;;;;;;;25.92;21.67;;;;;;;;;;5051938;28;20452;-82
2023/02/23 05:41:51;;;;;;;24.55;20.98;;;;;;;;;;5038984;28;20442;-83
2023/02/23 05:44:17;;;;;;;24.83;20.85;;;;;;;;;;5048782;28;20496;-82
2023/02/23 05:49:21;;;;;;;24.37;20.87;;;;;;;;;;5061819;28;20441;-87
2023/02/23 05:51:47;;;;;;;23.98;20.27;;;;;;;;;;5052006;28;20400;-87
2023/02/23 05:54:16;;;;;;;24.42;20.92;;;;;;;;;;5052317;28;20431;-87
2023/02/23 05:56:43;;;;;;;24.07;20.43;;;;;;;;;;5051049;28;20952;-89
2023/02/23 05:59:09;;;;;;;24.87;20.57;;;;;;;;;;5064352;28;20509;-87
2023/02/23 06:01:36;;;;;;;23.27;20.20;;;;;;;;;;5048807;28;20388;-87
2023/02/23 06:04:02;;;;;;;26.77;22.10;;;;;;;;;;5069336;28;20399;-88
2023/02/23 06:06:28;;;;;;;24.52;20.05;;;;;;;;;;5067043;28;20448;-87
2023/02/23 06:08:54;;;;;;;23.95;21.02;;;;;;;;;;5065963;28;20385;-86
2023/02/23 06:11:20;;;;;;;23.50;21.08;;;;;;;;;;5055617;28;20481;-86
2023/02/23 06:13:46;;;;;;;22.60;19.48;;;;;;;;;;5066231;28;20385;-87
2023/02/23 06:16:12;;;;;;;22.25;19.63;;;;;;;;;;5062846;28;20387;-86
2023/02/23 06:18:41;;;;;;;21.90;19.07;;;;;;;;;;5065659;28;20385;-87
2023/02/23 06:21:07;;;;;;;22.33;19.77;;;;;;;;;;5055506;28;20794;-87
2023/02/23 06:23:34;;;;;;;22.63;19.67;;;;;;;;;;5053468;28;20407;-86
2023/02/23 06:26:00;;;;;;;23.63;18.92;;;;;;;;;;5052883;28;20621;-87
2023/02/23 06:28:26;;;;;;;22.55;19.42;;;;;;;;;;5052947;28;20862;-87
2023/02/23 06:30:52;;;;;;;21.98;19.60;;;;;;;;;;5060263;28;20844;-88
2023/02/23 06:33:18;;;;;;;23.80;20.45;;;;;;;;;;5071753;28;20374;-88
2023/02/23 06:35:45;;;;;;;22.80;20.45;;;;;;;;;;5072986;28;21174;-88
2023/02/23 06:38:11;;;;;;;24.50;21.37;;;;;;;;;;5070705;28;20914;-87
2023/02/23 06:40:38;;;;;;;24.45;21.52;;;;;;;;;;5072186;28;20783;-87
2023/02/23 06:43:04;;;;;;;26.98;22.50;;;;;;;;;;5063445;28;20404;-87
2023/02/23 06:45:30;;;;;;;31.17;24.15;;;;;;;;;;5061370;28;20932;-87
2023/02/23 06:47:56;;;;;;;27.88;23.23;;;;;;;;;;5071568;28;20537;-87
2023/02/23 06:50:22;;;;;;;25.88;22.17;;;;;;;;;;5039363;28;20397;-87
2023/02/23 06:52:49;;;;;;;23.33;20.75;;;;;;;;;;5051831;28;20471;-87
2023/02/23 06:55:15;;;;;;;22.87;20.43;;;;;;;;;;5057885;28;20893;-87
2023/02/23 06:57:42;;;;;;;25.80;21.73;;;;;;;;;;5071892;28;20473;-87
2023/02/23 07:00:09;;;;;;;25.35;22.17;;;;;;;;;;5072225;28;20502;-88
2023/02/23 07:02:36;;;;;;;28.55;23.73;;;;;;;;;;5071219;28;20395;-87
2023/02/23 07:05:02;;;;;;;30.92;24.83;;;;;;;;;;5071568;28;20396;-89
2023/02/23 07:07:28;;;;;;;35.53;28.23;;;;;;;;;;5071463;28;20379;-89
2023/02/23 07:09:54;;;;;;;33.25;26.45;;;;;;;;;;5068562;28;20866;-89
2023/02/23 07:12:20;;;;;;;32.97;26.08;;;;;;;;;;5059697;28;20388;-89
2023/02/23 07:14:46;;;;;;;25.80;23.00;;;;;;;;;;5038938;28;20410;-89
2023/02/23 07:17:12;;;;;;;27.80;24.23;;;;;;;;;;5054865;28;20389;-88
2023/02/23 07:19:39;;;;;;;26.20;22.73;;;;;;;;;;5071148;28;20383;-91
2023/02/23 07:22:05;;;;;;;28.27;25.25;;;;;;;;;;5053329;28;20923;-90
2023/02/23 07:24:31;;;;;;;33.13;28.67;;;;;;;;;;5071031;28;20407;-89
2023/02/23 07:26:57;;;;;;;27.20;24.35;;;;;;;;;;5071410;28;20410;-89
2023/02/23 07:29:23;;;;;;;25.92;23.13;;;;;;;;;;5052303;28;20380;-88
2023/02/23 07:31:49;;;;;;;25.27;22.58;;;;;;;;;;5068613;28;20426;-88
2023/02/23 07:34:15;;;;;;;27.02;23.52;;;;;;;;;;5067737;28;20392;-88
2023/02/23 07:36:41;;;;;;;25.95;22.60;;;;;;;;;;5070977;28;20426;-88
2023/02/23 07:39:07;;;;;;;24.45;21.80;;;;;;;;;;5071009;28;20388;-88
2023/02/23 07:41:33;;;;;;;25.05;22.45;;;;;;;;;;5063694;28;20406;-88
2023/02/23 07:43:59;;;;;;;26.13;22.35;;;;;;;;;;5065637;28;20487;-86
2023/02/23 07:46:26;;;;;;;27.20;23.48;;;;;;;;;;5070094;28;20383;-86
2023/02/23 07:48:52;;;;;;;24.75;21.95;;;;;;;;;;5050689;28;20392;-87
2023/02/23 07:51:18;;;;;;;28.25;23.83;;;;;;;;;;5069563;28;20946;-87
2023/02/23 07:53:54;;;;;;;29.75;23.73;;;;;;;;;;5049523;28;20490;-87
2023/02/23 07:56:20;;;;;;;25.80;22.90;;;;;;;;;;5048663;28;20476;-88
2023/02/23 07:58:46;;;;;;;24.20;21.60;;;;;;;;;;5070486;28;20467;-87
2023/02/23 08:01:13;;;;;;;24.52;21.23;;;;;;;;;;5070395;28;20383;-87
2023/02/23 08:03:39;;;;;;;23.73;21.15;;;;;;;;;;5070048;28;20434;-88
2023/02/23 08:06:05;;;;;;;23.90;20.80;;;;;;;;;;5070561;28;20380;-87
2023/02/23 08:08:34;;;;;;;24.95;21.65;;;;;;;;;;5052777;28;20434;-89
2023/02/23 08:11:01;;;;;;;23.92;21.00;;;;;;;;;;5070715;28;20926;-87
2023/02/23 08:13:28;;;;;;;24.50;21.92;;;;;;;;;;5052798;28;20394;-87
2023/02/23 08:16:00;;;;;;;23.90;20.92;;;;;;;;;;5070769;28;20379;-87
2023/02/23 08:18:26;;;;;;;24.75;22.13;;;;;;;;;;5070775;28;20457;-87
2023/02/23 08:21:02;;;;;;;27.07;23.03;;;;;;;;;;5073870;28;20848;-89
2023/02/23 08:23:29;;;;;;;29.20;24.77;;;;;;;;;;5069189;28;20391;-89
2023/02/23 08:25:55;;;;;;;33.28;26.10;;;;;;;;;;5074136;28;20435;-88
2023/02/23 08:28:21;;;;;;;30.88;26.27;;;;;;;;;;5073795;28;20414;-91
2023/02/23 08:30:48;;;;;;;29.20;24.60;;;;;;;;;;5073789;28;20434;-87
2023/02/23 08:33:14;;;;;;;28.55;25.17;;;;;;;;;;5073850;28;20419;-85
2023/02/23 08:35:40;;;;;;;27.55;24.33;;;;;;;;;;5076212;28;20415;-89
2023/02/23 08:38:06;;;;;;;30.95;24.75;;;;;;;;;;5061641;28;20387;-91
2023/02/23 08:40:32;;;;;;;26.25;23.08;;;;;;;;;;5086168;28;20390;-91
2023/02/23 08:42:58;;;;;;;27.65;24.40;;;;;;;;;;5085483;28;20379;-93
2023/02/23 08:45:24;;;;;;;27.13;23.77;;;;;;;;;;5080497;28;20411;-91
2023/02/23 08:47:50;;;;;;;29.55;25.58;;;;;;;;;;5073241;28;20429;-91
2023/02/23 08:50:16;;;;;;;30.80;25.95;;;;;;;;;;5076722;28;20438;-91
2023/02/23 08:52:42;;;;;;;25.27;22.60;;;;;;;;;;5075744;28;20378;-89
2023/02/23 08:55:10;;;;;;;28.13;24.50;;;;;;;;;;5073931;28;20379;-89
2023/02/23 08:57:37;;;;;;;29.85;25.95;;;;;;;;;;5073634;28;20379;-89
2023/02/23 09:00:10;;;;;;;25.98;22.98;;;;;;;;;;5073511;28;20392;-88
2023/02/23 09:02:36;;;;;;;24.65;22.05;;;;;;;;;;5060205;28;20392;-89
2023/02/23 09:05:02;;;;;;;28.48;23.98;;;;;;;;;;5070772;28;20438;-88
2023/02/23 09:07:28;;;;;;;26.83;23.83;;;;;;;;;;5074173;28;20371;-87
2023/02/23 09:09:55;;;;;;;24.70;22.20;;;;;;;;;;5067043;28;20376;-87
2023/02/23 09:12:21;;;;;;;26.58;23.67;;;;;;;;;;5073572;28;20384;-86
2023/02/23 09:14:47;;;;;;;27.45;24.35;;;;;;;;;;5073252;28;20396;-87
2023/02/23 09:17:13;;;;;;;28.13;24.90;;;;;;;;;;5073268;28;20411;-87
2023/02/23 09:19:39;;;;;;;25.25;22.75;;;;;;;;;;5073997;28;20482;-87
2023/02/23 09:22:05;;;;;;;25.45;22.75;;;;;;;;;;5056026;28;20477;-87
2023/02/23 09:24:32;;;;;;;24.90;22.23;;;;;;;;;;5054898;28;20563;-87
2023/02/23 09:26:58;;;;;;;25.10;22.50;;;;;;;;;;5072912;28;20372;-88
2023/02/23 09:29:24;;;;;;;23.13;20.83;;;;;;;;;;5048116;28;20870;-88
2023/02/23 09:31:51;;;;;;;22.35;19.95;;;;;;;;;;5069237;28;20391;-87
2023/02/23 09:34:17;;;;;;;24.92;21.90;;;;;;;;;;5067358;28;20390;-87
2023/02/23 09:36:43;;;;;;;23.73;21.23;;;;;;;;;;5052113;28;20380;-90
2023/02/23 09:39:09;;;;;;;23.50;21.20;;;;;;;;;;5059980;28;21294;-88
2023/02/23 09:41:35;;;;;;;21.95;19.75;;;;;;;;;;5072826;28;20388;-87
2023/02/23 09:44:28;;;;;;;22.23;19.87;;;;;;;;;;5048455;28;20408;-89
2023/02/23 09:46:59;;;;;;;21.45;19.20;;;;;;;;;;5038427;28;20383;-89
2023/02/23 09:49:27;;;;;;;21.25;19.13;;;;;;;;;;5072855;28;20391;-91
2023/02/23 09:51:57;;;;;;;21.40;19.27;;;;;;;;;;5072367;28;20404;-90
2023/02/23 09:54:24;;;;;;;21.10;18.98;;;;;;;;;;5052145;28;20380;-89
2023/02/23 09:56:53;;;;;;;21.38;19.17;;;;;;;;;;5071192;28;20467;-89
2023/02/23 09:59:20;;;;;;;20.90;18.83;;;;;;;;;;5071477;28;20418;-90
2023/02/23 10:01:46;;;;;;;23.92;20.42;;;;;;;;;;5071998;28;20384;-90
2023/02/23 10:04:19;;;;;;;23.35;20.90;;;;;;;;;;5072167;28;20408;-89
2023/02/23 10:06:48;;;;;;;21.52;19.30;;;;;;;;;;5072224;28;20372;-88
2023/02/23 10:09:21;;;;;;;24.97;20.33;;;;;;;;;;5072134;28;20872;-90
2023/02/23 10:11:55;;;;;;;23.67;20.90;;;;;;;;;;5072678;28;20375;-89
2023/02/23 10:14:24;;;;;;;23.65;20.20;;;;;;;;;;5054036;28;20395;-90
2023/02/23 10:16:57;;;;;;;21.30;19.10;;;;;;;;;;5072388;28;20387;-89
2023/02/23 10:19:36;;;;;;;22.45;20.10;;;;;;;;;;5071961;28;20379;-89
2023/02/23 10:22:04;;;;;;;20.63;18.48;;;;;;;;;;5072127;28;20384;-90
2023/02/23 10:24:34;;;;;;;23.98;21.38;;;;;;;;;;5072151;28;20410;-90
2023/02/23 10:27:04;;;;;;;30.97;23.27;;;;;;;;;;5055089;28;20419;-89
2023/02/23 10:29:32;;;;;;;23.08;19.85;;;;;;;;;;5071978;28;20439;-89
2023/02/23 10:32:05;;;;;;;21.35;18.80;;;;;;;;;;5072255;28;20852;-90
2023/02/23 10:34:31;;;;;;;23.70;21.15;;;;;;;;;;5058183;28;20391;-89
2023/02/23 10:37:00;;;;;;;25.90;23.10;;;;;;;;;;5054079;28;20482;-89
2023/02/23 10:39:26;;;;;;;22.43;20.03;;;;;;;;;;5070653;28;20449;-88
2023/02/23 10:41:52;;;;;;;21.55;18.73;;;;;;;;;;5053356;28;20812;-89
2023/02/23 10:44:21;;;;;;;21.60;19.30;;;;;;;;;;5053505;28;20400;-89
2023/02/23 10:46:51;;;;;;;20.60;18.40;;;;;;;;;;5071521;28;20388;-90
2023/02/23 10:49:21;;;;;;;22.35;19.20;;;;;;;;;;5053812;28;20392;-88
2023/02/23 10:51:47;;;;;;;21.90;18.23;;;;;;;;;;5071798;28;20407;-90
2023/02/23 10:54:32;;;;;;;22.85;19.58;;;;;;;;;;5053447;28;20433;-89
2023/02/23 10:57:00;;;;;;;22.38;19.98;;;;;;;;;;5071280;28;20379;-88
2023/02/23 10:59:27;;;;;;;22.70;19.17;;;;;;;;;;5071454;28;20392;-88
2023/02/23 11:01:53;;;;;;;24.30;19.35;;;;;;;;;;5061223;28;20396;-90
2023/02/23 11:04:21;;;;;;;21.53;18.13;;;;;;;;;;5068832;28;20400;-89
2023/02/23 11:06:48;;;;;;;26.33;17.88;;;;;;;;;;5054985;28;20387;-89
2023/02/23 11:09:17;;;;;;;24.85;19.52;;;;;;;;;;5071009;28;20393;-89
2023/02/23 11:11:54;;;;;;;19.02;17.08;;;;;;;;;;5071117;28;20384;-89
2023/02/23 11:14:23;;;;;;;22.73;17.98;;;;;;;;;;5071066;28;20392;-89
2023/02/23 11:16:50;;;;;;;19.48;17.45;;;;;;;;;;5071136;28;20714;-89
2023/02/23 11:19:42;;;;;;;36.88;19.38;;;;;;;;;;5071175;28;20407;-89
2023/02/23 11:22:21;;;;;;;20.55;18.33;;;;;;;;;;5066650;28;20392;-90
2023/02/23 11:24:47;;;;;;;32.60;22.70;;;;;;;;;;5053659;28;20403;-89
2023/02/23 11:27:22;;;;;;;20.73;17.75;;;;;;;;;;5071370;28;20388;-89
2023/02/23 11:29:52;;;;;;;20.55;17.52;;;;;;;;;;5053033;28;20736;-89
2023/02/23 11:32:18;;;;;;;19.92;16.20;;;;;;;;;;5051951;28;20371;-89
2023/02/23 11:34:47;;;;;;;29.30;18.08;;;;;;;;;;5053340;28;20460;-89
2023/02/23 11:37:16;;;;;;;17.13;15.33;;;;;;;;;;5071107;28;20391;-90
2023/02/23 11:40:01;;;;;;;18.45;15.43;;;;;;;;;;5071081;28;20382;-88
2023/02/23 11:42:32;;;;;;;21.30;16.48;;;;;;;;;;5070654;28;20390;-89
2023/02/23 11:45:14;;;;;;;18.80;15.73;;;;;;;;;;5069286;28;20401;-89
2023/02/23 11:47:44;;;;;;;23.08;18.73;;;;;;;;;;5052563;28;20408;-89
2023/02/23 11:50:20;;;;;;;16.70;13.63;;;;;;;;;;5165885;23;20418;-82
2023/02/23 11:52:46;;;;;;;15.02;13.52;;;;;;;;;;5078063;28;20434;-84
2023/02/23 11:55:16;;;;;;;15.10;13.70;;;;;;;;;;5074646;28;20415;-81
2023/02/23 11:57:42;;;;;;;15.93;14.20;;;;;;;;;;5074734;28;20376;-83
2023/02/23 12:00:10;;;;;;;16.17;13.70;;;;;;;;;;5074700;28;20379;-83
2023/02/23 12:02:44;;;;;;;18.38;14.52;;;;;;;;;;5074695;28;20375;-82
2023/02/23 12:05:18;;;;;;;14.27;12.77;;;;;;;;;;5074532;28;20448;-84
2023/02/23 12:07:55;;;;;;;14.80;12.65;;;;;;;;;;5056530;28;20869;-83
2023/02/23 12:10:27;;;;;;;13.45;11.50;;;;;;;;;;5074593;28;20380;-83
2023/02/23 12:12:56;;;;;;;13.48;12.07;;;;;;;;;;5074403;28;20390;-83
2023/02/23 12:15:35;;;;;;;14.93;12.88;;;;;;;;;;5074721;28;20706;-84
2023/02/23 12:18:05;;;;;;;17.08;13.45;;;;;;;;;;5056504;28;20451;-81
2023/02/23 12:20:35;;;;;;;17.87;13.20;;;;;;;;;;5065345;28;20382;-84
2023/02/23 12:23:09;;;;;;;13.73;12.20;;;;;;;;;;5075292;28;20410;-84
2023/02/23 12:25:39;;;;;;;16.48;12.88;;;;;;;;;;5074983;28;20445;-81
2023/02/23 12:28:14;;;;;;;14.95;12.65;;;;;;;;;;5083636;28;20513;-83
2023/02/23 12:30:43;;;;;;;19.90;14.07;;;;;;;;;;5086024;28;20387;-83
2023/02/23 12:33:12;;;;;;;13.90;12.05;;;;;;;;;;5082645;28;20375;-83
2023/02/23 12:35:56;;;;;;;15.37;13.60;;;;;;;;;;5085029;28;20380;-83
2023/02/23 12:38:26;;;;;;;19.17;13.55;;;;;;;;;;5076405;28;20423;-83
2023/02/23 12:40:55;;;;;;;16.52;13.75;;;;;;;;;;5075118;28;20384;-83
2023/02/23 12:43:28;;;;;;;15.18;13.52;;;;;;;;;;5074625;28;20383;-83
2023/02/23 12:46:13;;;;;;;19.27;14.23;;;;;;;;;;5074708;28;20450;-82
2023/02/23 12:48:54;;;;;;;18.05;14.48;;;;;;;;;;5074560;28;20725;-82
2023/02/23 12:51:29;;;;;;;21.15;15.15;;;;;;;;;;5074047;28;20899;-85
2023/02/23 12:53:55;;;;;;;18.37;14.37;;;;;;;;;;5074161;28;20464;-85
2023/02/23 12:56:21;;;;;;;17.73;14.93;;;;;;;;;;5073872;28;20456;-83
2023/02/23 12:58:48;;;;;;;18.00;15.02;;;;;;;;;;5067315;28;20397;-82
2023/02/23 13:01:33;;;;;;;17.52;14.60;;;;;;;;;;5073051;28;20874;-83
2023/02/23 13:04:02;;;;;;;16.67;14.07;;;;;;;;;;5066596;28;20480;-82
2023/02/23 13:06:35;;;;;;;17.60;14.68;;;;;;;;;;5073113;28;20380;-82
2023/02/23 13:09:01;;;;;;;26.60;15.57;;;;;;;;;;5068469;28;20393;-84
2023/02/23 13:11:27;;;;;;;19.80;14.20;;;;;;;;;;5062097;28;20852;-84
2023/02/23 13:13:57;;;;;;;16.35;14.30;;;;;;;;;;5073850;28;20378;-84
2023/02/23 13:16:23;;;;;;;18.52;14.80;;;;;;;;;;5073548;28;20399;-84
2023/02/23 13:18:51;;;;;;;18.98;14.38;;;;;;;;;;5073852;28;20852;-84
2023/02/23 13:21:23;;;;;;;18.15;14.15;;;;;;;;;;5069690;28;20711;-84
2023/02/23 13:23:55;;;;;;;19.05;14.57;;;;;;;;;;5065881;28;20931;-83
2023/02/23 13:26:23;;;;;;;19.63;14.93;;;;;;;;;;5069367;28;20458;-84
2023/02/23 13:28:49;;;;;;;20.80;14.65;;;;;;;;;;5073324;28;20394;-84
2023/02/23 13:31:27;;;;;;;14.23;9.95;;;;;;;;;;5073220;28;20864;-84
2023/02/23 13:33:54;;;;;;;21.67;12.32;;;;;;;;;;5073088;28;20380;-82
2023/02/23 13:36:21;;;;;;;16.08;12.27;;;;;;;;;;5072647;28;20376;-83
2023/02/23 13:39:09;;;;;;;19.83;12.48;;;;;;;;;;5069741;28;20505;-84
2023/02/23 13:41:42;;;;;;;18.60;11.73;;;;;;;;;;5068974;28;20411;-83
2023/02/23 13:44:14;;;;;;;16.33;12.35;;;;;;;;;;5072962;28;20411;-83
2023/02/23 13:46:46;;;;;;;17.60;11.95;;;;;;;;;;5072756;28;20383;-83
2023/02/23 13:49:15;;;;;;;15.80;12.27;;;;;;;;;;5072766;28;20415;-83
2023/02/23 13:51:44;;;;;;;13.38;11.13;;;;;;;;;;5072533;28;20392;-83
2023/02/23 13:54:15;;;;;;;17.17;11.68;;;;;;;;;;5055953;28;20791;-83
2023/02/23 13:57:07;;;;;;;12.25;9.55;;;;;;;;;;5065855;28;20380;-83
2023/02/23 13:59:44;;;;;;;13.32;9.48;;;;;;;;;;5057993;28;20479;-83
2023/02/23 14:02:22;;;;;;;16.43;10.10;;;;;;;;;;5072482;28;20383;-83
2023/02/23 14:04:48;;;;;;;11.40;8.57;;;;;;;;;;5072327;28;20407;-83
2023/02/23 14:07:23;;;;;;;13.03;8.53;;;;;;;;;;5072333;28;20469;-82
2023/02/23 14:09:52;;;;;;;12.23;8.55;;;;;;;;;;5072412;28;20702;-82
2023/02/23 14:12:26;;;;;;;8.93;7.80;;;;;;;;;;5054455;28;20412;-84
2023/02/23 14:14:52;;;;;;;22.17;10.20;;;;;;;;;;5064335;28;20406;-84
2023/02/23 14:17:18;;;;;;;10.95;8.75;;;;;;;;;;5072960;28;20907;-84
2023/02/23 14:19:44;;;;;;;9.85;7.35;;;;;;;;;;5067150;28;20492;-85
2023/02/23 14:22:13;;;;;;;9.38;7.93;;;;;;;;;;5056788;28;20488;-84
2023/02/23 14:24:39;;;;;;;10.15;7.43;;;;;;;;;;5048037;28;20409;-83
2023/02/23 14:27:09;;;;;;;8.77;6.18;;;;;;;;;;5055351;28;20404;-83
2023/02/23 14:29:42;;;;;;;11.00;6.78;;;;;;;;;;5060699;28;20488;-83
2023/02/23 14:32:14;;;;;;;7.32;6.03;;;;;;;;;;5065071;28;20475;-83
2023/02/23 14:34:50;;;;;;;8.25;4.22;;;;;;;;;;5063708;28;20415;-84
2023/02/23 14:37:17;;;;;;;7.97;5.50;;;;;;;;;;5062506;28;20882;-84
2023/02/23 14:39:43;;;;;;;8.55;6.30;;;;;;;;;;5066124;28;20466;-84
2023/02/23 14:42:19;;;;;;;8.68;5.90;;;;;;;;;;5053948;28;20382;-83
2023/02/23 14:44:50;;;;;;;11.52;7.15;;;;;;;;;;5053703;28;20963;-82
2023/02/23 14:47:18;;;;;;;10.07;9.05;;;;;;;;;;5065215;28;20375;-83
2023/02/23 14:49:47;;;;;;;9.60;8.60;;;;;;;;;;5065737;28;20496;-83
2023/02/23 14:52:21;;;;;;;16.17;10.10;;;;;;;;;;5069177;28;20403;-83
2023/02/23 14:54:47;;;;;;;11.73;8.98;;;;;;;;;;5064677;28;20757;-82
2023/02/23 14:57:19;;;;;;;11.50;9.93;;;;;;;;;;5063480;28;20451;-83
2023/02/23 14:59:50;;;;;;;12.48;9.95;;;;;;;;;;5070439;28;20879;-83
2023/02/23 15:02:16;;;;;;;11.13;8.80;;;;;;;;;;5065631;28;20505;-83
2023/02/23 15:04:42;;;;;;;11.77;9.60;;;;;;;;;;5064255;28;20498;-82
2023/02/23 15:07:22;;;;;;;12.40;9.73;;;;;;;;;;5068787;28;20396;-82
2023/02/23 15:09:48;;;;;;;9.07;8.17;;;;;;;;;;5063119;28;20455;-82
2023/02/23 15:12:19;;;;;;;9.27;8.27;;;;;;;;;;5062438;28;20395;-83
2023/02/23 15:14:46;;;;;;;8.93;7.95;;;;;;;;;;5057589;28;20950;-82
2023/02/23 15:17:17;;;;;;;10.32;7.63;;;;;;;;;;5063454;28;20442;-82
2023/02/23 15:19:44;;;;;;;9.48;7.43;;;;;;;;;;5060471;28;20388;-82
2023/02/23 15:22:16;;;;;;;13.60;8.45;;;;;;;;;;5066138;28;20906;-82
2023/02/23 15:24:44;;;;;;;11.20;7.88;;;;;;;;;;5066085;28;20415;-81
2023/02/23 15:27:16;;;;;;;13.60;7.47;;;;;;;;;;5064218;28;20431;-82
2023/02/23 15:29:42;;;;;;;10.88;8.40;;;;;;;;;;5054906;28;20388;-83
2023/02/23 15:32:17;;;;;;;9.15;7.07;;;;;;;;;;5071093;28;20471;-83
2023/02/23 15:34:43;;;;;;;11.73;8.55;;;;;;;;;;5073058;28;20406;-83
2023/02/23 15:37:23;;;;;;;16.80;13.43;;;;;;;;;;5073322;28;20435;-83
2023/02/23 15:39:52;;;;;;;14.90;9.80;;;;;;;;;;5068176;28;20422;-83
2023/02/23 15:42:21;;;;;;;11.95;8.88;;;;;;;;;;5063856;28;20412;-83
2023/02/23 15:44:54;;;;;;;17.08;11.00;;;;;;;;;;5052129;28;20931;-83
2023/02/23 15:47:21;;;;;;;15.68;10.13;;;;;;;;;;5068716;28;20407;-83
2023/02/23 15:49:49;;;;;;;12.18;9.18;;;;;;;;;;5058322;28;20382;-82
2023/02/23 15:52:20;;;;;;;11.18;8.48;;;;;;;;;;5069008;28;20855;-83